Time;durP1;ratioP1;P1;durP2;ratioP2;P2;SDS_P1;SDS_P2;PMS_P1;PMS_P2;Temp;Humidity;BMP_temperature;BMP_pressure;BME280_temperature;BME280_humidity;BME280_pressure;Samples;Min_cycle;Max_cycle;Signal;HPM_P1;HPM_P2
2022/12/29 00:01:55;;;;;;;;;;;9.50;99.90;;;;;;4985026;28;20325;-73
2022/12/29 00:04:20;;;;;;;;;;;9.50;99.90;;;;;;4981298;28;19930;-74
2022/12/29 00:06:46;;;;;;;;;;;9.50;99.90;;;;;;4985429;28;19944;-74
2022/12/29 00:09:12;;;;;;;;;;;9.50;99.90;;;;;;4983887;28;19992;-73
2022/12/29 00:11:38;;;;;;;;;;;9.40;99.90;;;;;;4983572;28;19944;-74
2022/12/29 00:16:47;;;;;;;;;;;9.40;99.90;;;;;;5000150;28;19921;-74
2022/12/29 00:36:01;;;;;;;;;;;9.40;99.90;;;;;;4982535;28;19969;-75
2022/12/29 00:44:07;;;;;;;;;;;9.40;99.90;;;;;;4980880;28;20029;-74
2022/12/29 00:46:33;;;;;;;;;;;9.30;99.90;;;;;;4977015;28;19945;-73
2022/12/29 00:51:43;;;;;;;;;;;9.30;99.90;;;;;;4978266;28;19926;-73
2022/12/29 00:54:09;;;;;;;;;;;9.40;99.90;;;;;;4980845;28;19922;-73
2022/12/29 00:56:34;;;;;;;;;;;9.40;99.90;;;;;;4978718;28;20406;-73
2022/12/29 00:59:01;;;;;;;;;;;9.30;99.90;;;;;;4983816;28;20412;-73
2022/12/29 01:01:26;;;;;;;;;;;9.40;99.90;;;;;;4978672;28;20017;-73
2022/12/29 01:03:52;;;;;;;;;;;9.60;99.90;;;;;;4981680;28;20016;-74
2022/12/29 01:06:17;;;;;;;;;;;9.70;99.90;;;;;;4982055;28;19961;-73
2022/12/29 01:08:43;;;;;;;;;;;9.30;99.90;;;;;;4980979;28;19997;-73
2022/12/29 01:11:10;;;;;;;;;;;9.30;99.90;;;;;;4984496;28;20332;-73
2022/12/29 01:13:36;;;;;;;;;;;9.40;99.90;;;;;;4979857;28;19976;-74
2022/12/29 01:16:02;;;;;;;;;;;9.40;99.90;;;;;;4980521;28;19921;-74
2022/12/29 01:18:28;;;;;;;;;;;9.40;99.90;;;;;;4976691;28;19949;-74
2022/12/29 01:21:03;;;;;;;;;;;9.30;99.90;;;;;;4982875;28;19926;-74
2022/12/29 01:23:29;;;;;;;;;;;9.40;99.90;;;;;;4979930;28;19922;-73
2022/12/29 01:25:55;;;;;;;;;;;9.50;99.90;;;;;;4983264;28;19929;-74
2022/12/29 01:28:21;;;;;;;;;;;9.40;99.90;;;;;;4982136;28;19932;-74
2022/12/29 01:30:46;;;;;;;;;;;9.30;99.90;;;;;;4979900;28;19922;-74
2022/12/29 01:33:12;;;;;;;;;;;9.40;99.90;;;;;;4979230;28;19965;-74
2022/12/29 01:35:37;;;;;;;;;;;9.20;99.90;;;;;;4979279;28;20013;-74
2022/12/29 01:38:03;;;;;;;;;;;9.30;99.90;;;;;;4984201;28;19929;-75
2022/12/29 01:40:28;;;;;;;;;;;9.40;99.90;;;;;;4980470;28;19926;-74
2022/12/29 01:42:54;;;;;;;;;;;9.30;99.90;;;;;;4982803;28;19922;-74
2022/12/29 01:45:20;;;;;;;;;;;9.40;99.90;;;;;;4979522;28;19929;-74
2022/12/29 01:47:51;;;;;;;;;;;9.60;99.90;;;;;;4981152;28;19922;-74
2022/12/29 01:50:20;;;;;;;;;;;9.60;99.90;;;;;;4981145;28;19937;-74
2022/12/29 01:52:51;;;;;;;;;;;9.60;99.90;;;;;;4982900;28;19938;-74
2022/12/29 01:55:17;;;;;;;;;;;9.60;99.90;;;;;;4981147;28;19922;-74
2022/12/29 01:57:46;;;;;;;;;;;9.50;99.90;;;;;;4981572;28;19957;-74
2022/12/29 02:00:13;;;;;;;;;;;9.50;99.90;;;;;;4981103;28;19929;-74
2022/12/29 02:02:40;;;;;;;;;;;9.60;99.90;;;;;;4982022;28;19938;-74
2022/12/29 02:05:15;;;;;;;;;;;9.50;99.90;;;;;;4979256;28;19922;-74
2022/12/29 02:07:42;;;;;;;;;;;9.50;99.90;;;;;;4981703;28;20285;-74
2022/12/29 02:10:07;;;;;;;;;;;9.50;99.90;;;;;;4981334;28;19926;-74
2022/12/29 02:12:33;;;;;;;;;;;9.60;99.90;;;;;;4979700;28;20286;-74
2022/12/29 02:15:00;;;;;;;;;;;9.50;99.90;;;;;;4980325;28;19934;-75
2022/12/29 02:17:28;;;;;;;;;;;9.50;99.90;;;;;;4982553;28;19918;-75
2022/12/29 02:20:05;;;;;;;;;;;9.40;99.90;;;;;;4976579;28;20398;-75
2022/12/29 02:22:34;;;;;;;;;;;9.50;99.90;;;;;;4977731;28;19934;-75
2022/12/29 02:25:00;;;;;;;;;;;9.40;99.90;;;;;;4982393;28;20003;-75
2022/12/29 02:27:31;;;;;;;;;;;9.40;99.90;;;;;;4983136;28;20705;-75
2022/12/29 02:30:03;;;;;;;;;;;9.50;99.90;;;;;;4986930;28;19926;-74
2022/12/29 02:32:31;;;;;;;;;;;9.30;99.90;;;;;;4984706;28;19930;-75
2022/12/29 02:35:05;;;;;;;;;;;9.40;99.90;;;;;;4986796;28;20370;-75
2022/12/29 02:37:39;;;;;;;;;;;9.20;99.90;;;;;;4983091;28;19933;-74
2022/12/29 02:40:05;;;;;;;;;;;9.30;99.90;;;;;;4983464;28;19921;-74
2022/12/29 02:42:30;;;;;;;;;;;9.30;99.90;;;;;;4984632;28;19922;-75
2022/12/29 02:45:17;;;;;;;;;;;9.30;99.90;;;;;;4985022;28;20392;-75
2022/12/29 02:48:08;;;;;;;;;;;9.20;99.90;;;;;;4984395;28;19930;-74
2022/12/29 02:50:36;;;;;;;;;;;9.20;99.90;;;;;;4980626;28;19981;-74
2022/12/29 02:53:04;;;;;;;;;;;9.20;99.90;;;;;;4983139;28;19961;-75
2022/12/29 02:55:30;;;;;;;;;;;9.20;99.90;;;;;;4982289;28;19922;-74
2022/12/29 02:58:14;;;;;;;;;;;9.30;99.90;;;;;;4984788;28;19929;-75
2022/12/29 03:00:47;;;;;;;;;;;9.30;99.90;;;;;;4984456;28;19930;-75
2022/12/29 03:03:25;;;;;;;;;;;9.30;99.90;;;;;;4982429;28;19984;-74
2022/12/29 03:06:03;;;;;;;;;;;9.20;99.90;;;;;;4982063;28;19925;-75
2022/12/29 03:08:38;;;;;;;;;;;9.20;99.90;;;;;;4982408;28;19922;-74
2022/12/29 03:12:07;;;;;;;;;;;9.30;99.90;;;;;;4982999;28;19921;-75
2022/12/29 03:16:56;;;;;;;;;;;9.30;99.90;;;;;;5000996;28;19925;-74
2022/12/29 03:19:37;;;;;;;;;;;9.20;99.90;;;;;;4978966;28;19951;-75
2022/12/29 03:24:55;;;;;;;;;;;9.20;99.90;;;;;;5000213;28;19922;-74
2022/12/29 03:27:24;;;;;;;;;;;9.20;99.90;;;;;;4982296;28;20016;-75
2022/12/29 03:29:55;;;;;;;;;;;9.30;99.90;;;;;;4983490;28;19922;-74
2022/12/29 03:32:22;;;;;;;;;;;9.30;99.90;;;;;;4983093;28;20385;-75
2022/12/29 03:34:49;;;;;;;;;;;10.00;99.90;;;;;;4985503;28;20357;-75
2022/12/29 03:37:16;;;;;;;;;;;9.30;99.90;;;;;;4981309;28;19926;-75
2022/12/29 03:39:42;;;;;;;;;;;9.10;99.90;;;;;;4984501;28;19990;-75
2022/12/29 03:42:12;;;;;;;;;;;9.00;99.90;;;;;;4982138;28;19964;-74
2022/12/29 03:44:40;;;;;;;;;;;8.90;99.90;;;;;;4978511;28;19926;-75
2022/12/29 03:47:06;;;;;;;;;;;8.90;99.90;;;;;;4984419;28;19933;-75
2022/12/29 03:49:32;;;;;;;;;;;8.90;99.90;;;;;;4980637;28;20396;-75
2022/12/29 03:52:01;;;;;;;;;;;9.00;99.90;;;;;;4980652;28;19928;-75
2022/12/29 03:54:26;;;;;;;;;;;9.00;99.90;;;;;;4979138;28;20380;-75
2022/12/29 03:56:52;;;;;;;;;;;9.00;99.90;;;;;;4981593;28;20012;-75
2022/12/29 03:59:20;;;;;;;;;;;8.90;99.90;;;;;;4982859;28;19925;-75
2022/12/29 04:01:46;;;;;;;;;;;8.80;99.90;;;;;;4982983;28;19921;-75
2022/12/29 04:04:11;;;;;;;;;;;8.70;99.90;;;;;;4981572;28;19964;-75
2022/12/29 04:06:37;;;;;;;;;;;8.80;99.90;;;;;;4980702;28;19973;-75
2022/12/29 04:09:02;;;;;;;;;;;8.70;99.90;;;;;;4983641;28;19957;-75
2022/12/29 04:11:28;;;;;;;;;;;8.80;99.90;;;;;;4979611;28;20009;-75
2022/12/29 04:13:53;;;;;;;;;;;9.10;99.90;;;;;;4983860;28;20332;-75
2022/12/29 04:16:19;;;;;;;;;;;8.90;99.90;;;;;;4982443;28;19929;-75
2022/12/29 04:18:44;;;;;;;;;;;9.00;99.90;;;;;;4981001;28;20274;-75
2022/12/29 04:21:10;;;;;;;;;;;8.90;99.90;;;;;;4984537;28;19964;-75
2022/12/29 04:23:39;;;;;;;;;;;8.70;99.90;;;;;;4980433;28;19972;-75
2022/12/29 04:26:09;;;;;;;;;;;8.60;99.90;;;;;;4977022;28;19921;-75
2022/12/29 04:28:34;;;;;;;;;;;8.80;99.90;;;;;;4979784;28;19918;-75
2022/12/29 04:31:00;;;;;;;;;;;8.70;99.90;;;;;;4984777;28;20263;-74
2022/12/29 04:33:26;;;;;;;;;;;8.60;99.90;;;;;;4979622;28;19937;-75
2022/12/29 04:35:53;;;;;;;;;;;8.60;99.90;;;;;;4982520;28;19965;-75
2022/12/29 04:38:19;;;;;;;;;;;8.50;99.90;;;;;;4981867;28;19922;-75
2022/12/29 04:40:45;;;;;;;;;;;8.50;99.90;;;;;;4982975;28;19926;-74
2022/12/29 04:43:10;;;;;;;;;;;8.50;99.90;;;;;;4984166;28;19981;-74
2022/12/29 04:45:36;;;;;;;;;;;8.60;99.90;;;;;;4980004;28;19976;-75
2022/12/29 04:48:01;;;;;;;;;;;8.70;99.90;;;;;;4984189;28;19989;-75
2022/12/29 04:50:27;;;;;;;;;;;8.70;99.90;;;;;;4976305;28;19961;-75
2022/12/29 04:52:53;;;;;;;;;;;8.90;99.90;;;;;;4983596;28;19928;-75
2022/12/29 04:55:18;;;;;;;;;;;8.70;99.90;;;;;;4981776;28;19922;-75
2022/12/29 04:57:44;;;;;;;;;;;9.10;99.90;;;;;;4983190;28;19931;-75
2022/12/29 05:00:10;;;;;;;;;;;8.70;99.90;;;;;;4982713;28;19922;-75
2022/12/29 05:02:36;;;;;;;;;;;8.70;99.90;;;;;;4979454;28;19976;-74
2022/12/29 05:05:04;;;;;;;;;;;8.90;99.90;;;;;;4983948;28;20313;-75
2022/12/29 05:07:30;;;;;;;;;;;8.90;99.90;;;;;;4980417;28;20252;-75
2022/12/29 05:09:56;;;;;;;;;;;9.30;99.90;;;;;;4981143;28;19987;-74
2022/12/29 05:12:21;;;;;;;;;;;9.00;99.90;;;;;;4981625;28;19929;-75
2022/12/29 05:14:47;;;;;;;;;;;8.90;99.90;;;;;;4981347;28;19929;-76
2022/12/29 05:17:15;;;;;;;;;;;8.90;99.90;;;;;;4982729;28;20051;-76
2022/12/29 05:19:40;;;;;;;;;;;9.10;99.90;;;;;;4980641;28;19933;-76
2022/12/29 05:22:06;;;;;;;;;;;9.20;99.90;;;;;;4982721;28;19921;-75
2022/12/29 05:24:31;;;;;;;;;;;8.80;99.90;;;;;;4981325;28;19922;-75
2022/12/29 05:26:57;;;;;;;;;;;8.80;99.90;;;;;;4983003;28;19932;-75
2022/12/29 05:29:22;;;;;;;;;;;8.90;99.90;;;;;;4979055;28;19958;-75
2022/12/29 05:31:48;;;;;;;;;;;8.80;99.90;;;;;;4978461;28;20016;-75
2022/12/29 05:34:13;;;;;;;;;;;8.90;99.90;;;;;;4981669;28;19944;-75
2022/12/29 05:36:39;;;;;;;;;;;8.90;99.90;;;;;;4982248;28;20292;-75
2022/12/29 05:39:04;;;;;;;;;;;8.90;99.90;;;;;;4982969;28;19961;-75
2022/12/29 05:41:30;;;;;;;;;;;8.90;99.90;;;;;;4979553;28;20415;-75
2022/12/29 05:43:56;;;;;;;;;;;9.00;99.90;;;;;;4981612;28;20345;-75
2022/12/29 05:46:21;;;;;;;;;;;9.00;99.90;;;;;;4980428;28;19922;-75
2022/12/29 05:48:47;;;;;;;;;;;9.00;99.90;;;;;;4981462;28;19971;-75
2022/12/29 05:51:12;;;;;;;;;;;9.40;99.90;;;;;;4982531;28;20021;-75
2022/12/29 05:53:38;;;;;;;;;;;9.10;99.90;;;;;;4981623;28;19949;-75
2022/12/29 05:56:03;;;;;;;;;;;9.10;99.90;;;;;;4980001;28;19929;-75
2022/12/29 05:58:29;;;;;;;;;;;9.10;99.90;;;;;;4979028;28;19921;-74
2022/12/29 06:00:54;;;;;;;;;;;9.10;99.90;;;;;;4982303;28;19921;-75
2022/12/29 06:03:20;;;;;;;;;;;9.10;99.90;;;;;;4983916;28;19977;-75
2022/12/29 06:05:46;;;;;;;;;;;9.00;99.90;;;;;;4987550;28;19929;-75
2022/12/29 06:08:11;;;;;;;;;;;9.20;99.90;;;;;;4983445;28;19922;-75
2022/12/29 06:10:37;;;;;;;;;;;9.00;99.90;;;;;;4985506;28;19961;-75
2022/12/29 06:13:05;;;;;;;;;;;9.00;99.90;;;;;;4985454;28;19921;-75
2022/12/29 06:15:31;;;;;;;;;;;9.40;99.90;;;;;;4984491;28;19933;-75
2022/12/29 06:17:56;;;;;;;;;;;8.90;99.90;;;;;;4985851;28;19922;-75
2022/12/29 06:20:22;;;;;;;;;;;8.90;99.90;;;;;;4983818;28;19929;-75
2022/12/29 06:22:47;;;;;;;;;;;8.80;99.90;;;;;;4986199;28;19937;-75
2022/12/29 06:25:13;;;;;;;;;;;8.60;99.90;;;;;;4983536;28;19929;-75
2022/12/29 06:27:39;;;;;;;;;;;8.70;99.90;;;;;;4987178;28;19921;-75
2022/12/29 06:30:05;;;;;;;;;;;9.00;99.90;;;;;;4984092;28;19918;-75
2022/12/29 06:32:30;;;;;;;;;;;8.60;99.90;;;;;;4983615;28;19933;-75
2022/12/29 06:34:56;;;;;;;;;;;8.50;99.90;;;;;;4985962;28;19926;-75
2022/12/29 06:37:21;;;;;;;;;;;8.60;99.90;;;;;;4983435;28;19937;-75
2022/12/29 06:39:47;;;;;;;;;;;8.50;99.90;;;;;;4984548;28;19921;-75
2022/12/29 06:42:12;;;;;;;;;;;8.50;99.90;;;;;;4981953;28;19922;-75
2022/12/29 06:44:38;;;;;;;;;;;9.60;99.90;;;;;;4984500;28;20290;-75
2022/12/29 06:47:03;;;;;;;;;;;8.60;99.90;;;;;;4985771;28;19929;-75
2022/12/29 06:49:29;;;;;;;;;;;8.60;99.90;;;;;;4981708;28;20380;-75
2022/12/29 06:51:54;;;;;;;;;;;8.50;99.90;;;;;;4982588;28;20359;-75
2022/12/29 06:54:20;;;;;;;;;;;8.60;99.90;;;;;;4985187;28;19929;-75
2022/12/29 06:56:48;;;;;;;;;;;8.70;99.90;;;;;;4980194;28;19928;-75
2022/12/29 06:59:13;;;;;;;;;;;8.70;99.90;;;;;;4985334;28;20396;-75
2022/12/29 07:01:40;;;;;;;;;;;8.70;99.90;;;;;;4982229;28;19971;-74
2022/12/29 07:04:05;;;;;;;;;;;8.70;99.90;;;;;;4981185;28;20365;-75
2022/12/29 07:06:31;;;;;;;;;;;9.30;99.90;;;;;;4980617;28;19934;-73
2022/12/29 07:08:57;;;;;;;;;;;8.90;99.90;;;;;;4984936;28;20321;-75
2022/12/29 07:11:23;;;;;;;;;;;8.80;99.90;;;;;;4986765;28;19921;-75
2022/12/29 07:13:48;;;;;;;;;;;8.80;99.90;;;;;;4983443;28;20254;-73
2022/12/29 07:16:14;;;;;;;;;;;8.90;99.90;;;;;;4983256;28;19922;-74
2022/12/29 07:18:42;;;;;;;;;;;9.10;99.90;;;;;;4983308;28;19921;-76
2022/12/29 07:21:07;;;;;;;;;;;8.80;99.90;;;;;;4975891;28;19941;-75
2022/12/29 07:23:33;;;;;;;;;;;8.90;99.90;;;;;;4983074;28;19925;-76
2022/12/29 07:26:03;;;;;;;;;;;9.10;99.90;;;;;;4982476;28;19980;-78
2022/12/29 07:28:28;;;;;;;;;;;8.90;99.90;;;;;;4982753;28;19921;-75
2022/12/29 07:30:54;;;;;;;;;;;9.00;99.90;;;;;;4978161;28;20282;-76
2022/12/29 07:33:19;;;;;;;;;;;8.90;99.90;;;;;;4986248;28;19929;-85
2022/12/29 07:35:45;;;;;;;;;;;9.00;99.90;;;;;;4981889;28;19929;-78
2022/12/29 07:38:11;;;;;;;;;;;9.10;99.90;;;;;;4982203;28;19926;-75
2022/12/29 07:40:36;;;;;;;;;;;8.90;99.90;;;;;;4982909;28;20318;-80
2022/12/29 07:43:02;;;;;;;;;;;9.10;99.90;;;;;;4985297;28;20004;-77
2022/12/29 07:45:27;;;;;;;;;;;9.00;99.90;;;;;;4980850;28;19922;-75
2022/12/29 07:47:53;;;;;;;;;;;9.00;99.90;;;;;;4981673;28;19984;-74
2022/12/29 07:50:18;;;;;;;;;;;9.30;99.90;;;;;;4979250;28;19954;-78
2022/12/29 07:52:44;;;;;;;;;;;9.10;99.90;;;;;;4983021;28;19937;-77
2022/12/29 07:55:10;;;;;;;;;;;9.10;99.90;;;;;;4981558;28;19929;-77
2022/12/29 07:57:35;;;;;;;;;;;9.10;99.90;;;;;;4978421;28;19926;-76
2022/12/29 08:00:03;;;;;;;;;;;9.10;99.90;;;;;;4976931;28;19972;-77
2022/12/29 08:02:29;;;;;;;;;;;9.10;99.90;;;;;;4976226;28;20288;-77
2022/12/29 08:04:55;;;;;;;;;;;9.00;99.90;;;;;;4978597;28;19933;-78
2022/12/29 08:07:20;;;;;;;;;;;9.20;99.90;;;;;;4973612;28;19926;-77
2022/12/29 08:09:46;;;;;;;;;;;9.40;99.90;;;;;;4973294;28;19929;-79
2022/12/29 08:12:11;;;;;;;;;;;9.10;99.90;;;;;;4979835;28;20469;-80
2022/12/29 08:14:37;;;;;;;;;;;9.20;99.90;;;;;;4978640;28;20433;-81
2022/12/29 08:17:03;;;;;;;;;;;9.20;99.90;;;;;;4981501;28;20013;-79
2022/12/29 08:19:28;;;;;;;;;;;9.20;99.90;;;;;;4976359;28;19926;-81
2022/12/29 08:21:54;;;;;;;;;;;9.30;99.90;;;;;;4974480;28;19922;-82
2022/12/29 08:24:19;;;;;;;;;;;9.20;99.90;;;;;;4972102;28;20259;-83
2022/12/29 08:26:48;;;;;;;;;;;9.10;99.90;;;;;;4976175;28;19921;-82
2022/12/29 08:29:13;;;;;;;;;;;9.00;99.90;;;;;;4976291;28;20065;-80
2022/12/29 08:31:39;;;;;;;;;;;8.90;99.90;;;;;;4973596;28;19922;-79
2022/12/29 08:34:05;;;;;;;;;;;8.80;99.90;;;;;;4978966;28;19922;-79
2022/12/29 08:36:31;;;;;;;;;;;8.80;99.90;;;;;;4983363;28;19926;-78
2022/12/29 08:38:57;;;;;;;;;;;9.30;99.90;;;;;;4980661;28;20021;-79
2022/12/29 08:41:22;;;;;;;;;;;8.70;99.90;;;;;;4981751;28;19930;-77
2022/12/29 08:43:48;;;;;;;;;;;8.60;99.90;;;;;;4984861;28;19936;-77
2022/12/29 08:46:14;;;;;;;;;;;8.90;99.90;;;;;;4981634;28;19925;-80
2022/12/29 08:48:39;;;;;;;;;;;8.80;99.90;;;;;;4980355;28;20370;-77
2022/12/29 08:51:05;;;;;;;;;;;8.90;99.90;;;;;;4984124;28;19929;-77
2022/12/29 08:53:30;;;;;;;;;;;8.80;99.90;;;;;;4981615;28;19933;-76
2022/12/29 08:55:57;;;;;;;;;;;9.20;99.90;;;;;;4983208;28;19968;-76
2022/12/29 08:58:23;;;;;;;;;;;8.90;99.90;;;;;;4981276;28;19981;-76
2022/12/29 09:00:48;;;;;;;;;;;8.90;99.90;;;;;;4982392;28;19918;-77
2022/12/29 09:03:13;;;;;;;;;;;8.90;99.90;;;;;;4980608;28;19932;-77
2022/12/29 09:05:39;;;;;;;;;;;9.40;99.90;;;;;;4981534;28;20270;-77
2022/12/29 09:08:04;;;;;;;;;;;8.90;99.90;;;;;;4982473;28;19921;-77
2022/12/29 09:10:30;;;;;;;;;;;8.90;99.90;;;;;;4983321;28;19925;-73
2022/12/29 09:12:56;;;;;;;;;;;8.90;99.90;;;;;;4982541;28;19976;-71
2022/12/29 09:15:21;;;;;;;;;;;8.90;99.90;;;;;;4979958;28;20012;-73
2022/12/29 09:17:47;;;;;;;;;;;8.80;99.90;;;;;;4982796;28;19971;-75
2022/12/29 09:20:14;;;;;;;;;;;8.90;99.90;;;;;;4997923;28;19933;-74
2022/12/29 09:22:39;;;;;;;;;;;8.80;99.90;;;;;;4983599;28;19996;-82
2022/12/29 09:25:05;;;;;;;;;;;8.60;99.90;;;;;;4981338;28;20395;-71
2022/12/29 09:27:31;;;;;;;;;;;8.70;99.90;;;;;;4979487;28;19925;-78
2022/12/29 09:29:56;;;;;;;;;;;8.70;99.90;;;;;;4982886;28;20015;-74
2022/12/29 09:32:22;;;;;;;;;;;8.60;99.90;;;;;;4981028;28;19922;-75
2022/12/29 09:34:48;;;;;;;;;;;8.80;99.90;;;;;;4982150;28;20393;-76
2022/12/29 09:37:13;;;;;;;;;;;8.80;99.90;;;;;;4984469;28;20016;-74
2022/12/29 09:39:39;;;;;;;;;;;8.60;99.90;;;;;;4985560;28;20361;-75
2022/12/29 09:42:08;;;;;;;;;;;8.60;99.90;;;;;;4999227;28;19922;-80
2022/12/29 09:44:52;;;;;;;;;;;8.50;99.90;;;;;;4983859;28;19930;-80
2022/12/29 09:47:19;;;;;;;;;;;8.40;99.90;;;;;;4983082;28;19944;-81
2022/12/29 09:49:51;;;;;;;;;;;8.60;99.90;;;;;;4976905;28;20298;-77
2022/12/29 09:52:25;;;;;;;;;;;8.40;99.90;;;;;;4973368;28;20390;-74
2022/12/29 09:54:51;;;;;;;;;;;8.40;99.90;;;;;;4978284;28;19936;-79
2022/12/29 09:57:28;;;;;;;;;;;8.40;99.90;;;;;;4979456;28;20319;-80
2022/12/29 10:00:00;;;;;;;;;;;8.50;99.90;;;;;;4980297;28;20361;-84
2022/12/29 10:02:36;;;;;;;;;;;8.50;99.90;;;;;;4977729;28;19922;-80
2022/12/29 10:05:12;;;;;;;;;;;8.50;99.90;;;;;;4980837;28;20396;-76
2022/12/29 10:07:46;;;;;;;;;;;8.60;99.90;;;;;;4980845;28;20670;-76
2022/12/29 10:10:22;;;;;;;;;;;8.60;99.90;;;;;;4976429;28;19921;-77
2022/12/29 10:12:54;;;;;;;;;;;8.60;99.90;;;;;;4982522;28;19922;-76
2022/12/29 10:15:23;;;;;;;;;;;8.70;99.90;;;;;;4970974;28;19934;-78
2022/12/29 10:17:53;;;;;;;;;;;8.70;99.90;;;;;;4978846;28;20463;-74
2022/12/29 10:20:42;;;;;;;;;;;8.70;99.90;;;;;;4981063;28;20476;-76
2022/12/29 10:23:17;;;;;;;;;;;8.70;99.90;;;;;;4966905;28;19926;-74
2022/12/29 10:25:45;;;;;;;;;;;8.70;99.90;;;;;;4980083;28;19922;-76
2022/12/29 10:28:21;;;;;;;;;;;8.90;99.90;;;;;;4979720;28;19933;-76
2022/12/29 10:30:48;;;;;;;;;;;8.80;99.90;;;;;;4978328;28;20425;-76
2022/12/29 10:33:23;;;;;;;;;;;9.30;99.90;;;;;;4981215;28;20009;-73
2022/12/29 10:35:49;;;;;;;;;;;8.80;99.90;;;;;;4979740;28;20429;-76
2022/12/29 10:38:30;;;;;;;;;;;9.10;99.90;;;;;;4974051;28;19926;-76
2022/12/29 10:41:08;;;;;;;;;;;8.80;99.90;;;;;;4977651;28;19951;-78
2022/12/29 10:43:38;;;;;;;;;;;8.80;99.90;;;;;;4982397;28;20363;-74
2022/12/29 10:46:10;;;;;;;;;;;8.70;99.90;;;;;;4981835;28;19929;-76
2022/12/29 10:48:36;;;;;;;;;;;8.80;99.90;;;;;;4981191;28;19926;-74
2022/12/29 10:51:04;;;;;;;;;;;9.30;99.90;;;;;;4976055;28;19929;-81
2022/12/29 10:53:51;;;;;;;;;;;8.80;99.90;;;;;;4980126;28;19922;-75
2022/12/29 10:56:23;;;;;;;;;;;8.80;99.90;;;;;;4978089;28;19922;-76
2022/12/29 10:58:49;;;;;;;;;;;9.20;99.90;;;;;;4978009;28;19922;-77
2022/12/29 11:01:16;;;;;;;;;;;9.80;99.90;;;;;;4979169;28;20016;-80
2022/12/29 11:03:48;;;;;;;;;;;10.10;99.90;;;;;;4984146;28;19933;-76
2022/12/29 11:06:21;;;;;;;;;;;9.90;99.90;;;;;;4982378;28;19977;-76
2022/12/29 11:08:52;;;;;;;;;;;9.80;99.90;;;;;;4981761;28;19922;-75
2022/12/29 11:11:22;;;;;;;;;;;9.70;99.90;;;;;;4980206;28;19922;-78
2022/12/29 11:13:49;;;;;;;;;;;9.80;99.90;;;;;;4979203;28;20613;-75
2022/12/29 11:16:26;;;;;;;;;;;10.30;99.90;;;;;;4980917;28;19928;-77
2022/12/29 11:18:52;;;;;;;;;;;11.00;99.90;;;;;;4981639;28;20289;-75
2022/12/29 11:21:29;;;;;;;;;;;11.90;99.90;;;;;;4979649;28;19930;-75
2022/12/29 11:23:59;;;;;;;;;;;12.70;99.90;;;;;;4974790;28;20289;-76
2022/12/29 11:26:25;;;;;;;;;;;13.30;99.90;;;;;;4973457;28;19922;-76
2022/12/29 11:29:12;;;;;;;;;;;13.80;99.90;;;;;;4977394;28;19937;-77
2022/12/29 11:31:41;;;;;;;;;;;14.50;99.90;;;;;;4977677;28;19922;-77
2022/12/29 11:34:07;;;;;;;;;;;14.90;99.90;;;;;;4979190;28;19945;-78
2022/12/29 11:36:34;;;;;;;;;;;15.10;99.90;;;;;;4983495;28;19930;-78
2022/12/29 11:39:00;;;;;;;;;;;15.30;99.90;;;;;;4984765;28;19921;-76
2022/12/29 11:41:27;;;;;;;;;;;15.40;99.90;;;;;;4981976;28;20266;-79
2022/12/29 11:43:55;;;;;;;;;;;15.30;99.90;;;;;;4981865;28;19976;-79
2022/12/29 11:46:29;;;;;;;;;;;15.30;99.90;;;;;;4981189;28;19992;-78
2022/12/29 11:48:58;;;;;;;;;;;15.60;99.90;;;;;;4981443;28;19959;-79
2022/12/29 11:51:29;;;;;;;;;;;15.50;99.90;;;;;;4980609;28;19922;-80
2022/12/29 11:53:59;;;;;;;;;;;15.80;99.90;;;;;;4984778;28;19963;-79
2022/12/29 11:56:42;;;;;;;;;;;16.00;99.90;;;;;;4982181;28;20029;-82
2022/12/29 11:59:26;;;;;;;;;;;15.80;99.90;;;;;;4980021;28;19984;-77
2022/12/29 12:01:52;;;;;;;;;;;16.00;99.90;;;;;;4984161;28;19929;-82
2022/12/29 12:04:19;;;;;;;;;;;16.40;99.90;;;;;;4980122;28;20020;-78
2022/12/29 12:06:48;;;;;;;;;;;16.10;99.90;;;;;;4970972;28;19926;-80
2022/12/29 12:09:22;;;;;;;;;;;16.10;99.90;;;;;;4983435;28;19961;-77
2022/12/29 12:11:53;;;;;;;;;;;15.40;99.90;;;;;;4984215;28;19988;-74
2022/12/29 12:14:31;;;;;;;;;;;15.60;99.90;;;;;;4978411;28;19921;-75
2022/12/29 12:17:00;;;;;;;;;;;15.60;99.90;;;;;;4976575;28;20408;-73
2022/12/29 12:19:40;;;;;;;;;;;15.40;99.90;;;;;;4976583;28;19922;-76
2022/12/29 12:22:24;;;;;;;;;;;15.20;99.90;;;;;;4981987;28;20401;-76
2022/12/29 12:25:05;;;;;;;;;;;15.10;99.90;;;;;;4968739;28;19929;-75
2022/12/29 12:27:39;;;;;;;;;;;14.90;99.90;;;;;;4964703;28;19937;-74
2022/12/29 12:30:11;;;;;;;;;;;14.60;99.90;;;;;;4976973;28;19980;-76
2022/12/29 12:32:48;;;;;;;;;;;14.80;99.90;;;;;;4975105;28;19979;-74
2022/12/29 12:35:16;;;;;;;;;;;14.80;99.90;;;;;;4974379;28;19932;-74
2022/12/29 12:37:57;;;;;;;;;;;15.00;99.90;;;;;;4976277;28;19977;-74
2022/12/29 12:40:33;;;;;;;;;;;15.10;99.90;;;;;;4979955;28;19921;-74
2022/12/29 12:43:14;;;;;;;;;;;15.40;99.90;;;;;;4979848;28;19932;-75
2022/12/29 12:45:48;;;;;;;;;;;15.60;99.90;;;;;;4980057;28;19922;-75
2022/12/29 12:48:29;;;;;;;;;;;15.40;99.90;;;;;;4963792;28;19925;-74
2022/12/29 12:50:58;;;;;;;;;;;15.20;99.90;;;;;;4978681;28;19921;-74
2022/12/29 12:53:35;;;;;;;;;;;15.30;99.90;;;;;;4978866;28;19981;-75
2022/12/29 12:56:04;;;;;;;;;;;15.20;99.90;;;;;;4975581;28;19922;-81
2022/12/29 12:58:38;;;;;;;;;;;15.10;99.90;;;;;;4970632;28;19921;-75
2022/12/29 13:01:07;;;;;;;;;;;14.70;99.90;;;;;;4981369;28;19922;-74
2022/12/29 13:03:42;;;;;;;;;;;14.20;99.90;;;;;;4975562;28;19925;-74
2022/12/29 13:06:16;;;;;;;;;;;14.20;99.90;;;;;;4976860;28;20350;-74
2022/12/29 13:08:44;;;;;;;;;;;14.30;99.90;;;;;;4969742;28;19933;-72
2022/12/29 13:11:12;;;;;;;;;;;14.00;99.90;;;;;;4972625;28;19925;-74
2022/12/29 13:13:38;;;;;;;;;;;14.00;99.90;;;;;;4964787;28;20061;-71
2022/12/29 13:16:08;;;;;;;;;;;13.70;99.90;;;;;;4973283;28;20012;-72
2022/12/29 13:18:34;;;;;;;;;;;13.60;99.90;;;;;;4978188;28;19933;-72
2022/12/29 13:21:08;;;;;;;;;;;13.40;99.90;;;;;;4977804;28;19921;-71
2022/12/29 13:23:38;;;;;;;;;;;13.70;99.90;;;;;;4973102;28;20012;-75
2022/12/29 13:26:03;;;;;;;;;;;12.80;99.90;;;;;;4977739;28;19929;-70
2022/12/29 13:28:35;;;;;;;;;;;12.30;99.90;;;;;;4973698;28;19922;-69
2022/12/29 13:31:04;;;;;;;;;;;12.00;99.90;;;;;;4976513;28;19921;-69
2022/12/29 13:33:30;;;;;;;;;;;11.80;99.90;;;;;;4967624;28;20065;-68
2022/12/29 13:36:00;;;;;;;;;;;11.20;99.90;;;;;;4972834;28;20033;-68
2022/12/29 13:38:39;;;;;;;;;;;11.10;99.90;;;;;;4975517;28;19922;-68
2022/12/29 13:41:10;;;;;;;;;;;11.00;99.90;;;;;;4972762;28;19952;-68
2022/12/29 13:43:39;;;;;;;;;;;11.70;99.90;;;;;;4976055;28;20020;-69
2022/12/29 13:46:10;;;;;;;;;;;10.60;99.90;;;;;;4974469;28;20013;-68
2022/12/29 13:48:45;;;;;;;;;;;10.40;99.90;;;;;;4976028;28;20001;-68
2022/12/29 13:51:11;;;;;;;;;;;10.40;99.90;;;;;;4978601;28;19925;-72
2022/12/29 13:53:40;;;;;;;;;;;10.20;99.90;;;;;;4979530;28;19929;-69
2022/12/29 13:56:09;;;;;;;;;;;10.10;99.90;;;;;;4978712;28;19922;-68
2022/12/29 13:58:39;;;;;;;;;;;10.10;99.90;;;;;;4976813;28;19922;-68
2022/12/29 14:01:17;;;;;;;;;;;10.50;99.90;;;;;;4976683;28;19922;-68
2022/12/29 14:03:51;;;;;;;;;;;9.80;99.90;;;;;;4977358;28;19921;-68
2022/12/29 14:06:19;;;;;;;;;;;9.70;99.90;;;;;;4975083;28;19921;-69
2022/12/29 14:08:46;;;;;;;;;;;9.60;99.90;;;;;;4977195;28;19926;-70
2022/12/29 14:11:20;;;;;;;;;;;9.40;99.90;;;;;;4971640;28;19975;-68
2022/12/29 14:13:46;;;;;;;;;;;9.30;99.90;;;;;;4976078;28;20320;-68
2022/12/29 14:16:24;;;;;;;;;;;9.20;99.90;;;;;;4978582;28;20345;-69
2022/12/29 14:18:50;;;;;;;;;;;9.10;99.90;;;;;;4976972;28;19921;-69
2022/12/29 14:21:15;;;;;;;;;;;8.80;99.90;;;;;;4975105;28;19932;-68
2022/12/29 14:23:42;;;;;;;;;;;9.80;99.90;;;;;;4983498;28;19926;-69
2022/12/29 14:26:16;;;;;;;;;;;8.70;99.90;;;;;;4981671;28;19980;-70
2022/12/29 14:28:42;;;;;;;;;;;8.80;99.90;;;;;;4981413;28;19929;-70
2022/12/29 14:31:11;;;;;;;;;;;8.80;99.90;;;;;;4983836;28;20020;-70
2022/12/29 14:33:36;;;;;;;;;;;8.70;99.90;;;;;;4976926;28;19945;-71
2022/12/29 14:36:20;;;;;;;;;;;8.70;99.90;;;;;;4983126;28;20648;-72
2022/12/29 14:38:46;;;;;;;;;;;8.70;99.90;;;;;;4983168;28;19921;-71
2022/12/29 14:41:17;;;;;;;;;;;9.40;99.90;;;;;;4982696;28;19991;-71
2022/12/29 14:43:52;;;;;;;;;;;8.60;99.90;;;;;;4981429;28;20392;-71
2022/12/29 14:46:18;;;;;;;;;;;8.70;99.90;;;;;;4979465;28;19922;-71
2022/12/29 14:48:44;;;;;;;;;;;8.60;99.90;;;;;;4983895;28;20419;-71
2022/12/29 14:51:17;;;;;;;;;;;8.50;99.90;;;;;;4982223;28;19930;-70
2022/12/29 14:53:50;;;;;;;;;;;8.50;99.90;;;;;;4984827;28;19928;-71
2022/12/29 14:56:16;;;;;;;;;;;8.50;99.90;;;;;;4981250;28;20382;-73
2022/12/29 14:58:56;;;;;;;;;;;8.50;99.90;;;;;;4984359;28;19976;-71
2022/12/29 15:01:36;;;;;;;;;;;8.40;99.90;;;;;;4979586;28;19929;-71
2022/12/29 15:04:22;;;;;;;;;;;8.40;99.90;;;;;;4982800;28;19965;-70
2022/12/29 15:06:49;;;;;;;;;;;8.40;99.90;;;;;;4983640;28;20285;-73
2022/12/29 15:09:36;;;;;;;;;;;8.50;99.90;;;;;;4978356;28;19925;-72
2022/12/29 15:12:23;;;;;;;;;;;8.50;99.90;;;;;;4977094;28;20356;-78